createdAt,value
2018-08-16T00:00:17.944Z,21.80
2018-08-16T00:02:46.733Z,21.70
2018-08-16T00:05:15.282Z,21.80
2018-08-16T00:07:43.633Z,21.70
2018-08-16T00:10:17.081Z,21.70
2018-08-16T00:12:46.483Z,21.70
2018-08-16T00:15:15.758Z,21.70
2018-08-16T00:17:44.044Z,21.70
2018-08-16T00:20:12.646Z,21.70
2018-08-16T00:22:41.067Z,21.60
2018-08-16T00:25:10.710Z,21.60
2018-08-16T00:27:38.976Z,21.60
2018-08-16T00:30:12.803Z,21.60
2018-08-16T00:32:41.275Z,21.60
2018-08-16T00:35:09.545Z,21.60
2018-08-16T00:37:37.794Z,21.60
2018-08-16T00:40:07.982Z,21.50
2018-08-16T00:42:36.619Z,21.60
2018-08-16T00:45:06.546Z,21.50
2018-08-16T00:47:35.348Z,21.50
2018-08-16T00:50:05.006Z,21.40
2018-08-16T00:52:33.536Z,21.40
2018-08-16T00:55:01.755Z,21.40
2018-08-16T00:57:30.032Z,21.50
2018-08-16T00:59:58.234Z,21.40
2018-08-16T01:02:26.490Z,21.40
2018-08-16T01:04:54.727Z,21.40
2018-08-16T01:07:23.042Z,21.40
2018-08-16T01:09:51.250Z,21.40
2018-08-16T01:12:19.522Z,21.40
2018-08-16T01:14:47.908Z,21.40
2018-08-16T01:17:16.181Z,21.30
2018-08-16T01:19:44.404Z,21.30
2018-08-16T01:22:13.010Z,21.30
2018-08-16T01:24:41.371Z,21.30
2018-08-16T01:27:09.654Z,21.30
2018-08-16T01:29:38.001Z,21.20
2018-08-16T01:32:06.195Z,21.20
2018-08-16T01:34:34.403Z,21.20
2018-08-16T01:37:02.670Z,21.20
2018-08-16T01:39:30.930Z,21.10
2018-08-16T01:41:59.201Z,21.10
2018-08-16T01:44:27.423Z,21.10
2018-08-16T01:46:55.651Z,21.10
2018-08-16T01:49:32.118Z,21.00
2018-08-16T01:52:00.712Z,21.00
2018-08-16T01:54:29.547Z,20.90
2018-08-16T01:56:58.266Z,20.90
2018-08-16T01:59:26.647Z,20.90
2018-08-16T02:01:54.885Z,20.90
2018-08-16T02:04:23.102Z,20.80
2018-08-16T02:06:51.960Z,20.80
2018-08-16T02:09:20.940Z,20.70
2018-08-16T02:11:49.287Z,20.70
2018-08-16T02:14:17.790Z,20.70
2018-08-16T02:16:46.070Z,20.60
2018-08-16T02:19:14.314Z,20.60
2018-08-16T02:21:42.534Z,20.60
2018-08-16T02:24:10.828Z,20.60
2018-08-16T02:26:39.127Z,20.70
2018-08-16T02:29:07.411Z,20.70
2018-08-16T02:31:35.680Z,20.70
2018-08-16T02:34:04.174Z,20.70
2018-08-16T02:36:32.456Z,20.70
2018-08-16T02:39:00.634Z,20.70
2018-08-16T02:41:28.897Z,20.70
2018-08-16T02:43:57.078Z,20.70
2018-08-16T02:46:25.342Z,20.70
2018-08-16T02:48:53.723Z,20.60
2018-08-16T02:51:21.970Z,20.60
2018-08-16T02:53:50.274Z,20.60
2018-08-16T02:56:18.522Z,20.50
2018-08-16T02:58:46.736Z,20.50
2018-08-16T03:01:14.998Z,20.40
2018-08-16T03:03:43.230Z,20.40
2018-08-16T03:06:11.651Z,20.40
2018-08-16T03:08:39.782Z,20.40
2018-08-16T03:11:08.380Z,20.40
2018-08-16T03:13:36.607Z,20.30
2018-08-16T03:16:04.798Z,20.30
2018-08-16T03:18:33.058Z,20.30
2018-08-16T03:21:01.376Z,20.30
2018-08-16T03:23:29.564Z,20.30
2018-08-16T03:25:57.840Z,20.30
2018-08-16T03:28:26.068Z,20.30
2018-08-16T03:30:54.278Z,20.30
2018-08-16T03:33:22.539Z,20.20
2018-08-16T03:35:50.745Z,20.20
2018-08-16T03:38:19.004Z,20.20
2018-08-16T03:40:47.245Z,20.20
2018-08-16T03:43:15.466Z,20.20
2018-08-16T03:45:43.684Z,20.10
2018-08-16T03:48:11.981Z,20.20
2018-08-16T03:50:40.171Z,20.10
2018-08-16T03:53:08.380Z,20.10
2018-08-16T03:55:36.642Z,20.10
2018-08-16T03:58:11.382Z,20.00
2018-08-16T04:00:39.646Z,20.00
2018-08-16T04:03:08.030Z,20.00
2018-08-16T04:05:36.363Z,19.90
2018-08-16T04:08:04.675Z,20.00
2018-08-16T04:10:32.966Z,19.90
2018-08-16T04:13:01.227Z,19.90
2018-08-16T04:15:29.474Z,19.90
2018-08-16T04:17:57.706Z,19.90
2018-08-16T04:20:25.938Z,19.90
2018-08-16T04:22:54.158Z,19.90
2018-08-16T04:25:22.384Z,19.90
2018-08-16T04:27:50.574Z,19.90
2018-08-16T04:30:18.860Z,19.80
2018-08-16T04:32:47.314Z,19.90
2018-08-16T04:35:15.613Z,19.80
2018-08-16T04:37:43.777Z,19.80
2018-08-16T04:40:12.088Z,19.80
2018-08-16T04:42:40.451Z,19.80
2018-08-16T04:45:09.291Z,19.80
2018-08-16T04:47:37.569Z,19.80
2018-08-16T04:50:08.230Z,19.80
2018-08-16T04:52:36.479Z,19.80
2018-08-16T04:55:05.478Z,19.80
2018-08-16T04:57:33.822Z,19.80
2018-08-16T05:00:02.058Z,19.90
2018-08-16T05:02:30.287Z,19.80
2018-08-16T05:04:58.494Z,19.90
2018-08-16T05:07:26.719Z,19.90
2018-08-16T05:09:55.234Z,19.90
2018-08-16T05:12:23.497Z,19.90
2018-08-16T05:14:51.698Z,20.00
2018-08-16T05:17:19.993Z,20.00
2018-08-16T05:19:48.239Z,20.10
2018-08-16T05:22:16.506Z,20.10
2018-08-16T05:24:44.791Z,20.10
2018-08-16T05:27:13.080Z,20.10
2018-08-16T05:29:41.347Z,20.10
2018-08-16T05:32:09.589Z,20.10
2018-08-16T05:34:37.818Z,20.20
2018-08-16T05:37:06.047Z,20.20
2018-08-16T05:39:34.262Z,20.30
2018-08-16T05:42:02.480Z,20.30
2018-08-16T05:44:30.712Z,20.30
2018-08-16T05:46:58.980Z,20.40
2018-08-16T05:49:27.171Z,20.40
2018-08-16T05:51:55.398Z,20.40
2018-08-16T05:54:23.663Z,20.40
2018-08-16T05:56:51.855Z,20.40
2018-08-16T05:59:20.111Z,20.40
2018-08-16T06:01:48.318Z,20.40
2018-08-16T06:04:16.563Z,20.50
2018-08-16T06:06:44.806Z,20.60
2018-08-16T06:09:13.089Z,20.70
2018-08-16T06:11:41.316Z,20.80
2018-08-16T06:14:10.053Z,20.80
2018-08-16T06:16:38.600Z,20.80
2018-08-16T06:19:07.386Z,20.80
2018-08-16T06:21:35.702Z,20.90
2018-08-16T06:24:04.070Z,21.00
2018-08-16T06:26:32.267Z,21.00
2018-08-16T06:29:00.478Z,21.10
2018-08-16T06:31:28.817Z,21.10
2018-08-16T06:33:57.139Z,21.20
2018-08-16T06:36:25.498Z,21.20
2018-08-16T06:38:53.876Z,21.30
2018-08-16T06:41:22.005Z,21.40
2018-08-16T06:43:50.225Z,21.40
2018-08-16T06:46:18.516Z,21.40
2018-08-16T06:48:46.791Z,21.40
2018-08-16T06:51:15.052Z,21.40
2018-08-16T06:53:43.297Z,21.50
2018-08-16T06:56:11.574Z,21.60
2018-08-16T06:58:39.846Z,21.70
2018-08-16T07:01:08.199Z,22.00
2018-08-16T07:03:36.443Z,22.20
2018-08-16T07:06:04.682Z,22.30
2018-08-16T07:08:32.940Z,22.30
2018-08-16T07:11:01.239Z,22.30
2018-08-16T07:13:29.490Z,22.30
2018-08-16T07:15:57.702Z,22.40
2018-08-16T07:18:25.943Z,22.50
2018-08-16T07:20:54.191Z,22.60
2018-08-16T07:23:22.403Z,22.60
2018-08-16T07:25:50.784Z,22.70
2018-08-16T07:28:19.077Z,22.80
2018-08-16T07:30:47.332Z,22.80
2018-08-16T07:33:15.715Z,22.80
2018-08-16T07:35:43.946Z,22.90
2018-08-16T07:38:12.205Z,22.90
2018-08-16T07:40:40.478Z,23.00
2018-08-16T07:43:08.773Z,22.80
2018-08-16T07:45:37.383Z,22.80
2018-08-16T07:48:06.238Z,22.90
2018-08-16T07:50:34.593Z,23.00
2018-08-16T07:53:02.763Z,23.10
2018-08-16T07:55:31.123Z,23.10
2018-08-16T07:57:59.326Z,23.20
2018-08-16T08:00:27.584Z,23.30
2018-08-16T08:02:55.805Z,23.30
2018-08-16T08:05:24.029Z,23.40
2018-08-16T08:07:52.614Z,23.40
2018-08-16T08:10:20.831Z,23.60
2018-08-16T08:12:49.086Z,23.90
2018-08-16T08:15:17.354Z,24.20
2018-08-16T08:17:45.788Z,24.80
2018-08-16T08:20:15.397Z,25.40
2018-08-16T08:22:43.698Z,26.20
2018-08-16T08:25:13.085Z,27.40
2018-08-16T08:27:41.279Z,28.10
2018-08-16T08:30:15.182Z,28.70
2018-08-16T08:32:43.452Z,30.10
2018-08-16T08:35:11.710Z,31.50
2018-08-16T08:37:51.330Z,32.60
2018-08-16T08:40:19.607Z,33.10
2018-08-16T08:42:47.973Z,33.20
2018-08-16T08:45:16.236Z,33.80
2018-08-16T08:47:46.852Z,34.10
2018-08-16T08:50:15.138Z,33.80
2018-08-16T08:52:43.383Z,33.70
2018-08-16T08:55:23.082Z,33.10
2018-08-16T08:58:02.815Z,32.40
2018-08-16T09:00:31.060Z,31.40
2018-08-16T09:02:59.360Z,30.50
2018-08-16T09:05:27.614Z,29.70
2018-08-16T09:07:55.831Z,29.10
2018-08-16T09:11:01.978Z,28.60
2018-08-16T09:13:41.848Z,27.70
2018-08-16T09:16:12.626Z,27.10
2018-08-16T09:18:40.978Z,27.00
2018-08-16T09:21:10.119Z,27.00
2018-08-16T09:23:38.399Z,27.00
2018-08-16T09:26:12.074Z,27.00
2018-08-16T09:28:40.735Z,27.00
2018-08-16T09:31:20.874Z,27.00
2018-08-16T09:34:00.346Z,26.90
2018-08-16T09:36:28.651Z,26.90
2018-08-16T09:38:57.721Z,26.90
2018-08-16T09:41:26.071Z,26.80
2018-08-16T09:43:54.343Z,26.70
2018-08-16T09:47:03.250Z,26.60
2018-08-16T09:49:33.099Z,26.60
2018-08-16T09:52:01.426Z,26.60
2018-08-16T09:54:29.803Z,26.50
2018-08-16T09:56:59.519Z,26.50
2018-08-16T09:59:27.939Z,26.50
2018-08-16T10:01:56.220Z,26.60
2018-08-16T10:04:24.576Z,26.60
2018-08-16T10:06:52.823Z,26.60
2018-08-16T10:09:23.210Z,26.70
2018-08-16T10:11:51.978Z,26.70
2018-08-16T10:14:20.600Z,26.70
2018-08-16T10:16:48.861Z,26.70
2018-08-16T10:19:17.122Z,26.80
2018-08-16T10:21:45.545Z,26.80
2018-08-16T10:24:13.892Z,26.70
2018-08-16T10:26:42.352Z,26.70
2018-08-16T10:29:11.374Z,26.80
2018-08-16T10:31:39.674Z,26.90
2018-08-16T10:34:08.668Z,27.10
2018-08-16T10:36:37.043Z,27.10
2018-08-16T10:39:10.978Z,27.10
2018-08-16T10:41:40.014Z,27.00
2018-08-16T10:44:08.340Z,27.20
2018-08-16T10:46:36.663Z,27.30
2018-08-16T10:49:04.950Z,27.40
2018-08-16T10:51:34.438Z,27.40
2018-08-16T10:54:02.730Z,27.30
2018-08-16T10:56:31.248Z,27.50
2018-08-16T10:58:59.563Z,27.40
2018-08-16T11:01:28.074Z,27.40
2018-08-16T11:03:56.273Z,27.40
2018-08-16T11:06:24.727Z,27.60
2018-08-16T11:08:52.970Z,27.70
2018-08-16T11:11:21.286Z,27.80
2018-08-16T11:13:49.736Z,27.90
2018-08-16T11:16:17.987Z,27.40
2018-08-16T11:18:46.300Z,28.00
2018-08-16T11:21:14.550Z,28.20
2018-08-16T11:23:43.346Z,28.20
2018-08-16T11:26:11.568Z,28.20
2018-08-16T11:28:40.501Z,28.30
2018-08-16T11:31:08.749Z,28.30
2018-08-16T11:33:37.058Z,28.30
2018-08-16T11:36:05.379Z,28.40
2018-08-16T11:38:33.627Z,28.40
2018-08-16T11:41:01.866Z,28.50
2018-08-16T11:43:30.205Z,28.70
2018-08-16T11:45:58.491Z,28.70
2018-08-16T11:48:26.749Z,28.70
2018-08-16T11:50:54.982Z,28.60
2018-08-16T11:53:23.262Z,28.40
2018-08-16T11:55:51.547Z,28.50
2018-08-16T11:58:19.857Z,28.50
2018-08-16T12:00:48.103Z,28.70
2018-08-16T12:03:16.375Z,28.80
2018-08-16T12:05:44.662Z,28.80
2018-08-16T12:08:12.954Z,28.70
2018-08-16T12:10:41.186Z,28.80
2018-08-16T12:13:09.398Z,28.80
2018-08-16T12:15:37.639Z,28.70
2018-08-16T12:18:06.292Z,28.80
2018-08-16T12:20:34.690Z,28.80
2018-08-16T12:23:02.971Z,28.90
2018-08-16T12:25:31.175Z,28.80
2018-08-16T12:27:59.402Z,28.90
2018-08-16T12:30:27.637Z,29.10
2018-08-16T12:32:55.830Z,29.30
2018-08-16T12:35:24.086Z,29.40
2018-08-16T12:37:52.330Z,29.30
2018-08-16T12:40:20.541Z,29.40
2018-08-16T12:42:48.852Z,29.40
2018-08-16T12:45:17.080Z,29.30
2018-08-16T12:47:45.380Z,29.30
2018-08-16T12:50:13.634Z,29.30
2018-08-16T12:52:41.907Z,29.40
2018-08-16T12:55:10.162Z,29.50
2018-08-16T12:57:38.431Z,29.60
2018-08-16T13:00:11.177Z,29.70
2018-08-16T13:02:39.397Z,29.70
2018-08-16T13:05:07.731Z,29.80
2018-08-16T13:07:36.244Z,29.80
2018-08-16T13:10:05.204Z,29.90
2018-08-16T13:12:33.786Z,30.00
2018-08-16T13:15:02.530Z,29.90
2018-08-16T13:17:30.873Z,30.00
2018-08-16T13:19:59.121Z,30.00
2018-08-16T13:22:27.706Z,30.00
2018-08-16T13:24:56.017Z,30.00
2018-08-16T13:27:24.330Z,30.00
2018-08-16T13:29:52.579Z,30.00
2018-08-16T13:32:20.781Z,30.00
2018-08-16T13:34:49.072Z,30.10
2018-08-16T13:37:17.292Z,30.20
2018-08-16T13:39:45.553Z,30.00
2018-08-16T13:42:13.942Z,30.00
2018-08-16T13:44:42.226Z,30.00
2018-08-16T13:47:10.714Z,30.00
2018-08-16T13:49:39.097Z,30.10
2018-08-16T13:52:07.862Z,30.20
2018-08-16T13:54:36.074Z,30.30
2018-08-16T13:57:04.342Z,30.30
2018-08-16T13:59:32.671Z,30.40
2018-08-16T14:02:01.081Z,30.50
2018-08-16T14:04:29.686Z,30.40
2018-08-16T14:06:58.299Z,30.50
2018-08-16T14:09:26.838Z,30.40
2018-08-16T14:11:55.043Z,30.30
2018-08-16T14:14:23.889Z,30.30
2018-08-16T14:16:52.143Z,30.40
2018-08-16T14:19:20.431Z,30.50
2018-08-16T14:21:48.711Z,30.60
2018-08-16T14:24:16.947Z,30.60
2018-08-16T14:26:45.234Z,30.70
2018-08-16T14:29:13.478Z,30.70
2018-08-16T14:31:41.693Z,30.80
2018-08-16T14:34:09.972Z,30.80
2018-08-16T14:36:38.376Z,30.80
2018-08-16T14:39:08.568Z,30.70
2018-08-16T14:41:36.836Z,30.50
2018-08-16T14:44:05.137Z,30.50
2018-08-16T14:46:33.367Z,30.50
2018-08-16T14:49:01.622Z,30.60
2018-08-16T14:51:30.006Z,30.70
2018-08-16T14:53:58.139Z,31.90
2018-08-16T14:56:26.478Z,30.80
2018-08-16T14:58:54.722Z,30.90
2018-08-16T15:01:22.967Z,30.90
2018-08-16T15:03:51.251Z,30.90
2018-08-16T15:06:19.571Z,30.90
2018-08-16T15:08:47.770Z,30.90
2018-08-16T15:11:16.025Z,30.90
2018-08-16T15:13:44.250Z,30.90
2018-08-16T15:16:19.202Z,30.90
2018-08-16T15:18:47.447Z,30.90
2018-08-16T15:21:15.691Z,30.80
2018-08-16T15:23:43.939Z,30.80
2018-08-16T15:26:12.159Z,30.60
2018-08-16T15:28:40.494Z,30.50
2018-08-16T15:31:08.745Z,30.50
2018-08-16T15:33:37.030Z,30.60
2018-08-16T15:36:05.309Z,30.60
2018-08-16T15:38:33.538Z,30.60
2018-08-16T15:41:01.837Z,30.50
2018-08-16T15:43:30.029Z,30.70
2018-08-16T15:45:58.285Z,30.70
2018-08-16T15:48:26.506Z,30.60
2018-08-16T15:50:54.715Z,30.50
2018-08-16T15:53:23.023Z,30.50
2018-08-16T15:55:51.246Z,30.50
2018-08-16T15:58:19.532Z,30.50
2018-08-16T16:00:47.802Z,30.50
2018-08-16T16:03:16.035Z,30.50
2018-08-16T16:05:44.442Z,30.40
2018-08-16T16:08:13.640Z,30.30
2018-08-16T16:10:41.948Z,30.10
2018-08-16T16:13:10.186Z,30.10
2018-08-16T16:15:38.792Z,30.10
2018-08-16T16:18:07.078Z,30.20
2018-08-16T16:20:35.395Z,30.20
2018-08-16T16:23:03.691Z,30.20
2018-08-16T16:25:31.931Z,30.10
2018-08-16T16:28:00.178Z,30.10
2018-08-16T16:30:28.461Z,30.10
2018-08-16T16:32:57.331Z,30.10
2018-08-16T16:35:25.627Z,29.90
2018-08-16T16:37:53.859Z,29.90
2018-08-16T16:40:22.102Z,29.90
2018-08-16T16:42:50.378Z,29.90
2018-08-16T16:45:18.687Z,29.90
2018-08-16T16:47:46.982Z,29.90
2018-08-16T16:50:15.409Z,29.90
2018-08-16T16:52:43.653Z,29.80
2018-08-16T16:55:11.922Z,29.80
2018-08-16T16:57:40.243Z,29.80
2018-08-16T17:00:09.260Z,29.70
2018-08-16T17:02:37.551Z,29.70
2018-08-16T17:05:06.139Z,29.50
2018-08-16T17:07:34.635Z,29.40
2018-08-16T17:10:03.875Z,29.40
2018-08-16T17:12:32.489Z,29.30
2018-08-16T17:15:01.142Z,29.30
2018-08-16T17:17:29.936Z,29.20
2018-08-16T17:19:58.655Z,29.10
2018-08-16T17:22:27.463Z,29.10
2018-08-16T17:24:56.425Z,29.00
2018-08-16T17:27:25.086Z,29.00
2018-08-16T17:29:54.100Z,28.90
2018-08-16T17:32:22.532Z,28.90
2018-08-16T17:34:51.090Z,28.80
2018-08-16T17:37:19.885Z,28.70
2018-08-16T17:39:48.381Z,28.70
2018-08-16T17:42:17.275Z,28.70
2018-08-16T17:44:45.572Z,28.70
2018-08-16T17:47:14.268Z,28.70
2018-08-16T17:49:42.516Z,28.70
2018-08-16T17:52:10.869Z,28.70
2018-08-16T17:54:38.956Z,28.60
2018-08-16T17:57:07.306Z,28.60
2018-08-16T17:59:35.556Z,28.50
2018-08-16T18:02:03.887Z,28.40
2018-08-16T18:04:32.149Z,28.40
2018-08-16T18:07:00.401Z,28.30
2018-08-16T18:09:28.634Z,28.20
2018-08-16T18:11:56.887Z,28.10
2018-08-16T18:14:25.395Z,28.10
2018-08-16T18:16:53.717Z,28.00
2018-08-16T18:19:22.005Z,28.00
2018-08-16T18:21:50.207Z,27.90
2018-08-16T18:24:18.461Z,27.90
2018-08-16T18:26:46.924Z,27.90
2018-08-16T18:29:15.174Z,27.80
2018-08-16T18:31:43.414Z,27.70
2018-08-16T18:34:11.691Z,27.70
2018-08-16T18:36:39.985Z,27.60
2018-08-16T18:39:09.117Z,27.60
2018-08-16T18:41:37.813Z,27.50
2018-08-16T18:44:06.090Z,27.50
2018-08-16T18:46:34.424Z,27.40
2018-08-16T18:49:02.615Z,27.40
2018-08-16T18:51:30.878Z,27.30
2018-08-16T18:53:59.089Z,27.30
2018-08-16T18:56:27.366Z,27.20
2018-08-16T18:58:55.643Z,27.20
2018-08-16T19:01:23.944Z,27.20
2018-08-16T19:03:52.187Z,27.10
2018-08-16T19:06:20.414Z,27.10
2018-08-16T19:08:48.734Z,27.10
2018-08-16T19:11:17.022Z,27.00
2018-08-16T19:13:45.304Z,27.00
2018-08-16T19:16:13.657Z,26.90
2018-08-16T19:18:41.924Z,26.80
2018-08-16T19:21:10.186Z,26.80
2018-08-16T19:23:38.394Z,26.70
2018-08-16T19:26:06.696Z,26.70
2018-08-16T19:28:34.971Z,26.70
2018-08-16T19:31:03.266Z,26.70
2018-08-16T19:33:31.989Z,26.60
2018-08-16T19:36:00.352Z,26.60
2018-08-16T19:38:28.633Z,26.60
2018-08-16T19:40:56.924Z,26.60
2018-08-16T19:43:25.200Z,26.50
2018-08-16T19:45:53.542Z,26.50
2018-08-16T19:48:21.820Z,26.50
2018-08-16T19:50:50.024Z,26.50
2018-08-16T19:53:18.213Z,26.50
2018-08-16T19:55:46.684Z,26.40
2018-08-16T19:58:15.143Z,26.40
2018-08-16T20:00:43.352Z,26.40
2018-08-16T20:03:11.675Z,26.40
2018-08-16T20:05:40.061Z,26.40
2018-08-16T20:08:08.307Z,26.30
2018-08-16T20:10:36.508Z,26.30
2018-08-16T20:13:05.205Z,26.30
2018-08-16T20:15:33.427Z,26.30
2018-08-16T20:18:01.884Z,26.20
2018-08-16T20:20:31.064Z,26.20
2018-08-16T20:22:59.266Z,26.10
2018-08-16T20:25:27.929Z,26.10
2018-08-16T20:27:56.253Z,26.10
2018-08-16T20:30:24.975Z,26.10
2018-08-16T20:32:53.230Z,26.10
2018-08-16T20:35:21.452Z,26.00
2018-08-16T20:37:49.794Z,26.00
2018-08-16T20:40:18.041Z,25.90
2018-08-16T20:42:46.294Z,25.90
2018-08-16T20:45:14.558Z,25.90
2018-08-16T20:47:43.061Z,25.90
2018-08-16T20:50:11.290Z,25.90
2018-08-16T20:52:40.435Z,25.80
2018-08-16T20:55:08.638Z,25.80
2018-08-16T20:57:37.010Z,25.70
2018-08-16T21:00:06.192Z,25.70
2018-08-16T21:02:34.442Z,25.70
2018-08-16T21:05:02.654Z,25.70
2018-08-16T21:07:30.915Z,25.70
2018-08-16T21:09:59.839Z,25.70
2018-08-16T21:12:28.039Z,25.60
2018-08-16T21:14:56.261Z,25.60
2018-08-16T21:17:24.442Z,25.50
2018-08-16T21:19:52.723Z,25.50
2018-08-16T21:22:20.967Z,25.50
2018-08-16T21:24:49.271Z,25.50
2018-08-16T21:27:17.504Z,25.50
2018-08-16T21:29:46.013Z,25.40
2018-08-16T21:32:17.229Z,25.40
2018-08-16T21:34:45.435Z,25.40
2018-08-16T21:37:13.680Z,25.30
2018-08-16T21:39:41.931Z,25.30
2018-08-16T21:42:10.150Z,25.30
2018-08-16T21:44:38.414Z,25.30
2018-08-16T21:47:06.612Z,25.30
2018-08-16T21:49:34.826Z,25.30
2018-08-16T21:52:03.054Z,25.30
2018-08-16T21:54:31.214Z,25.20
2018-08-16T21:56:59.410Z,25.20
2018-08-16T21:59:27.610Z,25.20
2018-08-16T22:01:55.975Z,25.10
2018-08-16T22:04:24.182Z,25.10
2018-08-16T22:07:04.275Z,25.10
2018-08-16T22:09:32.515Z,25.10
2018-08-16T22:12:00.714Z,25.00
2018-08-16T22:14:28.919Z,25.00
2018-08-16T22:16:57.109Z,25.00
2018-08-16T22:19:25.326Z,25.00
2018-08-16T22:21:53.546Z,24.90
2018-08-16T22:24:21.806Z,24.90
2018-08-16T22:26:50.261Z,24.90
2018-08-16T22:29:18.598Z,24.90
2018-08-16T22:31:46.812Z,24.90
2018-08-16T22:34:15.030Z,24.90
2018-08-16T22:36:43.287Z,24.80
2018-08-16T22:39:12.916Z,24.80
2018-08-16T22:41:41.133Z,24.80
2018-08-16T22:44:09.696Z,24.80
2018-08-16T22:46:38.042Z,24.70
2018-08-16T22:49:06.391Z,24.70
2018-08-16T22:51:34.681Z,24.70
2018-08-16T22:54:02.866Z,24.60
2018-08-16T22:56:31.112Z,24.60
2018-08-16T22:58:59.332Z,24.60
2018-08-16T23:01:27.550Z,24.50
2018-08-16T23:03:55.774Z,24.50
2018-08-16T23:06:24.009Z,24.50
2018-08-16T23:08:52.255Z,24.50
2018-08-16T23:11:20.494Z,24.50
2018-08-16T23:13:48.724Z,24.50
2018-08-16T23:16:16.942Z,24.40
2018-08-16T23:18:45.214Z,24.40
2018-08-16T23:21:13.418Z,24.40
2018-08-16T23:23:41.616Z,24.30
2018-08-16T23:26:09.881Z,24.30
2018-08-16T23:28:38.165Z,24.30
2018-08-16T23:31:06.421Z,24.30
2018-08-16T23:33:34.647Z,24.30
2018-08-16T23:36:02.884Z,24.30
2018-08-16T23:38:31.091Z,24.30
2018-08-16T23:40:59.370Z,24.20
2018-08-16T23:43:28.412Z,24.20
2018-08-16T23:45:56.633Z,24.20
2018-08-16T23:48:27.967Z,24.20
2018-08-16T23:50:56.166Z,24.20
2018-08-16T23:53:24.461Z,24.20
2018-08-16T23:55:52.882Z,24.10
2018-08-16T23:58:21.166Z,24.10
